Rome–Fiumicino Leonardo da Vinci International Airport

LIRF · 拉齐奥, 意大利

罗盘
风向 的 风向 的 风向 到 风向 300° Leonardo da Vinci–Fiumicino Airport 7/25
风: 4 kt, 2 beaufort

3 kt

3 kt
改变
0 1.000 2.000 3.000 4.000 5.000
CAVOK
METAR LIRF 040950Z 30004KT 250V350 CAVOK 23/15 Q1021 NOSIG

METAR Leonardo da Vinci–Fiumicino Airport - LIRF/FCO

Leonardo da Vinci–Fiumicino Airport是Rome,意大利中的大型机场。 该机场有3条跑道: 7/25, 16L/34R 和 16R/34L. 该领域的国际民航组织标志是LIRF 它的国际航空运输协会代码是FCO.

这份报告是针对2022年10月4日 11:50, 当地时间在Leonardo da Vinci–Fiumicino Airport进行的。

机场观察

风向为300°,速度为4 kt。 风向在250°和350°之间变化。

天气为CAVOK。这意味着在5.000 ft或MSA(最低安全高度)以下(以较高者为准)以下没有云。这也意味着没有观测到积雨云或高耸的积云,可见度为10 km 或者更多或更高。此外,不会有雾,降雨或其他重要天气。

温度和风寒是23 °C。 露点为15 °C,相对湿度为61%。 海平面上的气压为1021 hPa (QNH)。

白天

今天,太阳从07:11升起,在18:48降落。 这适用于Leonardo da Vinci–Fiumicino Airport,世界夏令时可能有所不同。 当地时间与世界标准时间之间的时差为+2 小时。 夏令时目前正在进行中。

公司介绍

我们没有关于这个机场的公司信息。

体会

到Vliegles.nl去找飞行课程,跳伞和其他飞行体验。 浏览页面,了解Leonardo da Vinci–Fiumicino Airport附近所有可用的活动。 你也可以使用搜索功能来寻找你所在地附近的特定飞行课程、跳伞或其他飞行体验。

跑道

Id 标题 侧风 逆风 侧风 %
7/25 070°-250° 3 kt 3 kt 77 %
16L/34R 163°-343° 3 kt 3 kt 68 %
16R/34L 163°-343° 3 kt 3 kt 68 %

逆风成分最大的方向会被突出显示,并用于横风计算。 这并不一定意味着这个方向在使用。

温度 & 天气

温度 23 °C
露点 15 °C
相对湿度 61%
Kp-index 2 (0-9)

白天

日出
07:11
中午
12:59
日落
18:48 (6h 34m)

小工具

你想在你的网站上有一个关于Leonardo da Vinci–Fiumicino Airport的当前航空天气(METAR)的小部件吗?

</> 显示HTML代码

我们和第三方通过cookies跟踪您在我们网站上的上网行为。如果您继续,我们认为您同意我们的cookie政策。 了解更多